Time;durP1;ratioP1;P1;durP2;ratioP2;P2;SDS_P1;SDS_P2;PMS_P1;PMS_P2;Temp;Humidity;BMP_temperature;BMP_pressure;BME280_temperature;BME280_humidity;BME280_pressure;Samples;Min_cycle;Max_cycle;Signal;HPM_P1;HPM_P2
2022/09/13 00:00:49;;;;;;;7.27;6.33;;;;;;;16.04;84.60;100992.34;4970209;28;20244;-76
2022/09/13 00:03:15;;;;;;;7.53;5.97;;;;;;;16.05;84.11;100987.16;4975722;28;20204;-76
2022/09/13 00:05:41;;;;;;;6.70;6.00;;;;;;;16.06;83.90;100991.47;4967638;28;20211;-77
2022/09/13 00:08:07;;;;;;;6.83;6.03;;;;;;;16.07;83.48;100993.19;4978069;28;20197;-77
2022/09/13 00:10:34;;;;;;;6.43;5.63;;;;;;;16.06;83.95;100994.06;4974167;28;20203;-76
2022/09/13 00:13:00;;;;;;;6.17;5.30;;;;;;;16.06;83.63;100990.59;4978459;28;20892;-76
2022/09/13 00:15:26;;;;;;;6.67;6.07;;;;;;;16.06;83.42;100982.84;4973432;28;20192;-76
2022/09/13 00:17:52;;;;;;;8.73;5.73;;;;;;;16.07;83.94;100982.84;4993640;28;20347;-76
2022/09/13 00:20:18;;;;;;;6.50;5.90;;;;;;;16.07;84.22;100979.44;4975403;28;20180;-76
2022/09/13 00:22:43;;;;;;;6.23;5.60;;;;;;;16.05;84.02;100974.25;4992810;28;20630;-76
2022/09/13 00:25:09;;;;;;;5.87;5.20;;;;;;;16.08;84.20;100976.84;4979082;28;20676;-76
2022/09/13 00:27:35;;;;;;;5.93;5.37;;;;;;;16.08;84.18;100969.09;4976208;28;20299;-75
2022/09/13 00:30:04;;;;;;;8.53;5.37;;;;;;;16.07;84.19;100971.69;4975664;28;20299;-76
2022/09/13 00:32:29;;;;;;;6.13;5.53;;;;;;;16.09;83.96;100968.22;4957830;28;20192;-76
2022/09/13 00:34:55;;;;;;;5.53;5.13;;;;;;;16.08;84.64;100968.22;4981058;28;20204;-75
2022/09/13 00:37:21;;;;;;;5.80;4.80;;;;;;;16.09;84.38;100965.63;4965412;28;20296;-75
2022/09/13 00:39:46;;;;;;;6.00;5.40;;;;;;;16.09;85.02;100963.06;4980541;28;20276;-76
2022/09/13 00:42:12;;;;;;;8.37;5.80;;;;;;;16.06;85.39;100959.59;4974376;28;20208;-75
2022/09/13 00:44:56;;;;;;;6.00;5.40;;;;;;;16.08;85.75;100951.00;4967379;28;20189;-75
2022/09/13 00:47:28;;;;;;;6.17;5.50;;;;;;;16.04;85.95;100954.47;4974123;28;20324;-74
2022/09/13 00:50:04;;;;;;;5.90;5.40;;;;;;;16.04;86.09;100946.72;4974561;28;20392;-76
2022/09/13 00:52:32;;;;;;;7.13;5.37;;;;;;;16.03;85.74;100944.13;4970364;28;20243;-75
2022/09/13 00:55:05;;;;;;;7.27;6.33;;;;;;;16.02;86.33;100943.25;4972995;28;20294;-76
2022/09/13 00:57:33;;;;;;;6.23;5.63;;;;;;;16.05;85.79;100943.25;4977917;28;20268;-76
2022/09/13 01:00:10;;;;;;;9.97;6.03;;;;;;;16.03;86.68;100936.38;4968934;28;20187;-76
2022/09/13 01:02:38;;;;;;;8.10;5.53;;;;;;;16.03;86.57;100939.78;4972874;28;20228;-76
2022/09/13 01:05:04;;;;;;;6.93;5.10;;;;;;;16.06;86.35;100921.72;4957315;28;20221;-76
2022/09/13 01:07:30;;;;;;;7.00;5.30;;;;;;;16.06;87.14;100931.19;4956590;28;20208;-75
2022/09/13 01:09:56;;;;;;;6.63;5.40;;;;;;;16.00;87.54;100934.66;4966304;28;20240;-76
2022/09/13 01:12:32;;;;;;;8.30;5.73;;;;;;;15.99;88.15;100945.84;4962970;28;20280;-77
2022/09/13 01:15:00;;;;;;;6.57;5.83;;;;;;;15.99;88.02;100942.41;4968748;28;20208;-77
2022/09/13 01:17:28;;;;;;;7.53;6.43;;;;;;;15.98;89.52;100941.53;4965612;28;20223;-77
2022/09/13 01:19:53;;;;;;;8.53;5.87;;;;;;;15.97;90.53;100939.81;4967952;28;20333;-76
2022/09/13 01:22:58;;;;;;;8.67;6.53;;;;;;;15.93;90.80;100937.25;4972229;28;20288;-77
2022/09/13 01:26:04;;;;;;;7.47;6.03;;;;;;;15.89;90.85;100930.34;4962711;28;20212;-76
2022/09/13 01:28:41;;;;;;;7.60;6.80;;;;;;;15.82;90.10;100933.78;4931925;28;20229;-77
2022/09/13 01:31:13;;;;;;;10.30;6.73;;;;;;;15.83;90.81;100931.22;4957845;28;20687;-77
2022/09/13 01:34:03;;;;;;;9.10;6.53;;;;;;;15.76;89.80;100933.81;4972643;28;20193;-77
2022/09/13 01:36:43;;;;;;;7.37;6.67;;;;;;;15.78;89.92;100935.53;4968439;28;20208;-78
2022/09/13 01:39:41;;;;;;;7.33;6.60;;;;;;;15.79;89.83;100932.06;4963980;28;20547;-78
2022/09/13 01:42:41;;;;;;;7.17;6.17;;;;;;;15.85;89.88;100918.31;4962014;28;20213;-77
2022/09/13 01:45:50;;;;;;;8.10;6.63;;;;;;;15.86;91.42;100918.31;4967047;28;20210;-76
2022/09/13 01:48:28;;;;;;;7.90;6.70;;;;;;;15.88;92.34;100918.31;4977152;28;20255;-77
2022/09/13 01:51:22;;;;;;;9.33;6.93;;;;;;;15.86;92.82;100920.00;4949854;28;20189;-77
2022/09/13 01:53:59;;;;;;;7.60;6.60;;;;;;;15.81;93.64;100917.44;4970979;28;20291;-77
2022/09/13 01:56:35;;;;;;;8.17;6.93;;;;;;;15.81;93.61;100909.69;4958212;28;20208;-77
2022/09/13 01:59:10;;;;;;;7.27;6.57;;;;;;;15.83;93.92;100901.94;4962864;28;20595;-77
2022/09/13 02:01:41;;;;;;;8.60;7.13;;;;;;;15.83;93.84;100897.63;4966764;28;20201;-77
2022/09/13 02:04:12;;;;;;;8.40;7.43;;;;;;;15.84;93.88;100895.94;4967489;28;20216;-77
2022/09/13 02:06:55;;;;;;;8.97;7.33;;;;;;;15.80;93.73;100894.22;4963736;28;20288;-77
2022/09/13 02:09:25;;;;;;;8.00;7.20;;;;;;;15.77;93.17;100887.31;4965922;28;20203;-77
2022/09/13 02:12:01;;;;;;;8.93;7.90;;;;;;;15.79;93.12;100875.25;4954644;28;20189;-77
2022/09/13 02:14:34;;;;;;;9.07;7.60;;;;;;;15.80;93.39;100876.97;4973258;28;20199;-77
2022/09/13 02:17:06;;;;;;;8.97;8.07;;;;;;;15.75;93.94;100890.78;4961943;28;21476;-78
2022/09/13 02:19:42;;;;;;;8.47;7.67;;;;;;;15.71;94.53;100894.22;4970213;28;20193;-78
2022/09/13 02:22:13;;;;;;;8.93;8.10;;;;;;;15.62;94.84;100896.78;4973989;28;20191;-77
2022/09/13 02:24:44;;;;;;;8.53;7.47;;;;;;;15.63;94.17;100891.63;4971239;28;20678;-78
2022/09/13 02:27:15;;;;;;;9.07;8.17;;;;;;;15.65;93.47;100879.56;4954884;28;20267;-76
2022/09/13 02:29:45;;;;;;;10.67;8.27;;;;;;;15.68;93.44;100869.25;4964818;28;20346;-77
2022/09/13 02:32:19;;;;;;;9.80;8.80;;;;;;;15.67;93.45;100877.88;4969368;28;20187;-77
2022/09/13 02:34:51;;;;;;;8.70;7.80;;;;;;;15.64;94.16;100872.69;4969433;28;20208;-77
2022/09/13 02:37:18;;;;;;;9.00;7.93;;;;;;;15.65;94.13;100876.16;4974865;28;21268;-77
2022/09/13 02:39:50;;;;;;;10.27;8.13;;;;;;;15.61;94.39;100871.84;4973016;28;20203;-77
2022/09/13 02:42:33;;;;;;;8.40;7.47;;;;;;;15.63;94.58;100864.94;4974018;28;20246;-77
2022/09/13 02:45:00;;;;;;;8.90;7.60;;;;;;;15.58;94.42;100864.09;4972449;28;20197;-77
2022/09/13 02:47:48;;;;;;;8.43;7.67;;;;;;;15.60;94.89;100862.34;4983735;28;20213;-78
2022/09/13 02:50:40;;;;;;;8.57;7.67;;;;;;;15.57;94.85;100852.91;4969992;28;20201;-77
2022/09/13 02:53:29;;;;;;;9.17;8.33;;;;;;;15.57;94.97;100854.63;4971274;28;20228;-78
2022/09/13 02:56:18;;;;;;;8.80;7.83;;;;;;;15.51;95.11;100854.66;4968768;28;20208;-77
2022/09/13 02:59:00;;;;;;;9.70;8.07;;;;;;;15.47;95.19;100846.03;4978774;28;20185;-77
2022/09/13 03:01:26;;;;;;;11.47;8.33;;;;;;;15.50;95.30;100840.88;4968778;28;20580;-77
2022/09/13 03:03:55;;;;;;;11.90;8.20;;;;;;;15.53;95.21;100845.16;4960469;28;20291;-77
2022/09/13 03:06:25;;;;;;;8.87;7.97;;;;;;;15.49;95.25;100836.56;4983190;28;20579;-77
2022/09/13 03:08:53;;;;;;;10.83;8.17;;;;;;;15.51;94.82;100829.69;4992940;28;20255;-78
2022/09/13 03:11:45;;;;;;;10.07;8.43;;;;;;;15.54;95.22;100831.41;4981437;28;20188;-77
2022/09/13 03:14:39;;;;;;;10.87;8.90;;;;;;;15.51;95.92;100821.09;4972948;28;20634;-77
2022/09/13 03:17:11;;;;;;;9.43;8.40;;;;;;;15.52;95.59;100815.06;4970929;28;20220;-77
2022/09/13 03:20:03;;;;;;;10.07;9.00;;;;;;;15.49;95.91;100817.63;4984814;28;20206;-78
2022/09/13 03:22:43;;;;;;;11.33;9.60;;;;;;;15.48;96.17;100818.50;4978370;28;20258;-78
2022/09/13 03:25:24;;;;;;;9.87;8.77;;;;;;;15.46;96.64;100815.91;4996776;28;20192;-77
2022/09/13 03:27:56;;;;;;;11.57;9.63;;;;;;;15.49;96.77;100812.47;4982331;28;20227;-77
2022/09/13 03:30:21;;;;;;;10.93;9.43;;;;;;;15.48;96.99;100813.34;5000085;22;20213;-71
2022/09/13 03:32:54;;;;;;;11.83;9.97;;;;;;;15.47;96.60;100803.88;5002462;28;20280;-71
2022/09/13 03:35:29;;;;;;;10.73;9.63;;;;;;;15.47;97.39;100803.88;5011838;28;20241;-71
2022/09/13 03:38:12;;;;;;;11.60;9.50;;;;;;;15.49;97.38;100808.19;5007193;28;20688;-72
2022/09/13 03:40:52;;;;;;;11.27;10.20;;;;;;;15.45;97.37;100803.00;4990181;28;20184;-71
2022/09/13 03:43:24;;;;;;;12.57;10.00;;;;;;;15.48;97.39;100803.84;4998714;28;20226;-71
2022/09/13 03:45:58;;;;;;;11.13;10.00;;;;;;;15.49;97.76;100802.16;4989685;28;20183;-71
2022/09/13 03:48:26;;;;;;;10.63;9.43;;;;;;;15.49;97.71;100797.88;4989889;28;20302;-71
2022/09/13 03:50:51;;;;;;;11.33;10.13;;;;;;;15.48;97.80;100803.84;4995331;28;20869;-71
2022/09/13 03:53:24;;;;;;;11.20;10.07;;;;;;;15.45;97.81;100792.69;4994705;28;20185;-71
2022/09/13 03:55:49;;;;;;;13.83;10.37;;;;;;;15.44;98.03;100796.13;4996696;23;20235;-79
2022/09/13 03:58:19;;;;;;;10.80;9.70;;;;;;;15.45;97.82;100795.28;4982722;28;20562;-79
2022/09/13 04:00:45;;;;;;;11.83;10.17;;;;;;;15.40;98.27;100794.41;4995318;28;20203;-78
2022/09/13 04:03:16;;;;;;;13.80;11.10;;;;;;;15.39;98.88;100800.44;5009169;28;20801;-79
2022/09/13 04:05:45;;;;;;;12.17;10.10;;;;;;;15.44;98.65;100804.75;4996724;28;20247;-79
2022/09/13 04:08:22;;;;;;;12.27;10.30;;;;;;;15.47;98.19;100801.31;4993865;28;20282;-80
2022/09/13 04:10:51;;;;;;;11.40;10.20;;;;;;;15.48;97.63;100806.44;4988225;28;20222;-78
2022/09/13 04:13:19;;;;;;;11.47;10.00;;;;;;;15.49;98.19;100809.91;4996188;28;20203;-78
2022/09/13 04:15:45;;;;;;;11.90;10.67;;;;;;;15.48;98.08;100816.75;4993475;28;20241;-79
2022/09/13 04:18:11;;;;;;;12.47;10.33;;;;;;;15.54;98.52;100803.00;4991805;28;20195;-78
2022/09/13 04:20:36;;;;;;;12.67;10.47;;;;;;;15.57;98.55;100811.59;4997593;28;20191;-79
2022/09/13 04:23:02;;;;;;;12.50;10.83;;;;;;;15.57;98.31;100793.53;4993845;28;20606;-78
2022/09/13 04:25:27;;;;;;;13.27;11.03;;;;;;;15.60;98.25;100792.66;4993117;28;20218;-79
2022/09/13 04:27:54;;;;;;;12.57;10.93;;;;;;;15.54;98.97;100792.69;5006844;28;20218;-79
2022/09/13 04:30:20;;;;;;;12.00;10.50;;;;;;;15.53;99.08;100785.81;4977599;28;20704;-79
2022/09/13 04:32:46;;;;;;;11.43;10.20;;;;;;;15.55;99.27;100797.84;4970883;28;20207;-79
2022/09/13 04:35:12;;;;;;;14.60;11.70;;;;;;;15.54;99.06;100785.81;4989304;28;20187;-80
2022/09/13 04:37:38;;;;;;;12.87;11.53;;;;;;;15.57;99.45;100782.34;4987721;28;20198;-80
2022/09/13 04:40:07;;;;;;;13.70;11.80;;;;;;;15.57;99.19;100784.94;4977185;28;20318;-78
2022/09/13 04:42:33;;;;;;;12.33;11.03;;;;;;;15.60;98.82;100783.19;4986443;28;20247;-80
2022/09/13 04:44:59;;;;;;;16.37;11.87;;;;;;;15.60;98.96;100784.91;5006082;28;20204;-79
2022/09/13 04:47:24;;;;;;;12.17;10.97;;;;;;;15.63;98.74;100788.38;4989364;28;20201;-79
2022/09/13 04:49:50;;;;;;;13.23;11.50;;;;;;;15.65;99.12;100790.97;4976832;28;20216;-79
2022/09/13 04:52:15;;;;;;;12.73;11.27;;;;;;;15.66;98.90;100792.66;4989594;28;20704;-81
2022/09/13 04:54:41;;;;;;;13.20;10.90;;;;;;;15.67;99.67;100795.25;4994799;28;20203;-80
2022/09/13 04:57:06;;;;;;;15.70;12.53;;;;;;;15.68;98.96;100817.63;4993741;28;20214;-79
2022/09/13 04:59:32;;;;;;;16.57;12.77;;;;;;;15.70;99.15;100809.88;4991117;28;20192;-79
2022/09/13 05:01:57;;;;;;;15.50;12.50;;;;;;;15.70;98.95;100810.72;4993214;28;20216;-79
2022/09/13 05:04:22;;;;;;;13.23;11.93;;;;;;;15.74;99.09;100803.84;4993054;28;20206;-79
2022/09/13 05:06:48;;;;;;;13.90;12.13;;;;;;;15.72;99.32;100801.25;5013837;28;20195;-78
2022/09/13 05:09:14;;;;;;;14.00;12.33;;;;;;;15.71;99.21;100804.69;4998581;28;20213;-76
2022/09/13 05:11:40;;;;;;;16.50;13.27;;;;;;;15.72;99.63;100802.97;4981212;28;20204;-78
2022/09/13 05:14:06;;;;;;;16.33;14.20;;;;;;;15.67;99.91;100802.13;4997269;28;20202;-79
2022/09/13 05:16:34;;;;;;;18.20;14.40;;;;;;;15.68;100.00;100806.41;4999656;28;20184;-78
2022/09/13 05:19:00;;;;;;;18.17;14.07;;;;;;;15.64;100.00;100803.00;4995174;28;20286;-79
2022/09/13 05:21:27;;;;;;;19.37;15.40;;;;;;;15.64;100.00;100810.75;5006550;28;20207;-77
2022/09/13 05:23:54;;;;;;;17.53;14.07;;;;;;;15.65;100.00;100807.28;5011958;28;20271;-79
2022/09/13 05:26:21;;;;;;;18.10;15.13;;;;;;;15.67;100.00;100813.31;4990208;28;20219;-80
2022/09/13 05:28:47;;;;;;;17.27;15.33;;;;;;;15.66;100.00;100814.16;4998139;28;20638;-79
2022/09/13 05:31:16;;;;;;;16.07;14.33;;;;;;;15.69;100.00;100814.16;4993982;28;20210;-80
2022/09/13 05:33:43;;;;;;;16.93;14.70;;;;;;;15.72;100.00;100814.16;4990397;28;20732;-81
2022/09/13 05:36:08;;;;;;;18.63;15.20;;;;;;;15.73;100.00;100812.44;4993841;28;20207;-79
2022/09/13 05:38:34;;;;;;;17.33;14.60;;;;;;;15.75;100.00;100813.31;5007931;28;20180;-80
2022/09/13 05:41:01;;;;;;;18.33;14.93;;;;;;;15.76;100.00;100799.53;4995991;28;20293;-79
2022/09/13 05:43:29;;;;;;;17.87;15.07;;;;;;;15.78;100.00;100798.66;5011508;28;20191;-79
2022/09/13 05:46:04;;;;;;;18.30;15.33;;;;;;;15.81;100.00;100814.16;5013371;28;20195;-79
2022/09/13 05:48:30;;;;;;;16.30;14.43;;;;;;;15.86;100.00;100811.53;4993411;28;20258;-80
2022/09/13 05:51:02;;;;;;;22.67;16.40;;;;;;;15.94;100.00;100812.41;4999255;28;20230;-80
2022/09/13 05:53:28;;;;;;;21.43;16.43;;;;;;;15.97;100.00;100810.66;4976392;28;20192;-79
2022/09/13 05:55:53;;;;;;;21.87;17.10;;;;;;;16.00;100.00;100808.06;4995998;28;20202;-81
2022/09/13 05:58:18;;;;;;;25.27;19.43;;;;;;;16.01;100.00;100798.56;4975903;28;20215;-81
2022/09/13 06:00:44;;;;;;;26.63;19.57;;;;;;;16.02;100.00;100797.75;4994539;28;20287;-79
2022/09/13 06:03:09;;;;;;;26.03;20.33;;;;;;;16.03;100.00;100809.78;4988121;28;20769;-79
2022/09/13 06:05:34;;;;;;;27.33;20.53;;;;;;;16.04;100.00;100806.34;4979770;28;20215;-79
2022/09/13 06:08:00;;;;;;;28.83;21.07;;;;;;;16.06;100.00;100814.91;4997850;28;20603;-79
2022/09/13 06:10:25;;;;;;;28.53;20.97;;;;;;;16.10;100.00;100808.88;4997397;28;20216;-79
2022/09/13 06:12:51;;;;;;;30.17;21.70;;;;;;;16.22;100.00;100801.09;4986767;28;20195;-82
2022/09/13 06:15:16;;;;;;;29.43;20.83;;;;;;;16.33;100.00;100800.19;5003434;28;20188;-80
2022/09/13 06:17:42;;;;;;;27.70;21.87;;;;;;;16.33;100.00;100807.94;4995996;28;20192;-80
2022/09/13 06:20:08;;;;;;;25.60;19.97;;;;;;;16.35;100.00;100820.84;4996661;28;20648;-81
2022/09/13 06:22:34;;;;;;;30.50;22.00;;;;;;;16.32;100.00;100813.09;4998281;28;20235;-80
2022/09/13 06:24:59;;;;;;;30.93;22.77;;;;;;;16.43;100.00;100793.25;4997287;28;20203;-81
2022/09/13 06:27:25;;;;;;;28.67;22.03;;;;;;;16.49;100.00;100799.25;4997185;28;20207;-79
2022/09/13 06:29:50;;;;;;;26.10;21.50;;;;;;;16.49;100.00;100803.59;4993043;28;20920;-80
2022/09/13 06:32:16;;;;;;;31.17;21.77;;;;;;;16.52;100.00;100807.00;4994135;28;20211;-80
2022/09/13 06:34:41;;;;;;;28.37;21.33;;;;;;;16.54;100.00;100805.25;4993251;28;20184;-79
2022/09/13 06:37:07;;;;;;;31.33;21.60;;;;;;;16.59;100.00;100805.25;4998998;28;20644;-80
2022/09/13 06:39:33;;;;;;;28.00;22.53;;;;;;;16.63;100.00;100799.19;5004831;28;20190;-80
2022/09/13 06:41:59;;;;;;;27.90;22.40;;;;;;;16.68;100.00;100790.56;5001736;28;20215;-80
2022/09/13 06:44:37;;;;;;;29.37;22.33;;;;;;;16.76;100.00;100787.91;4998440;28;20779;-79
2022/09/13 06:47:03;;;;;;;30.57;22.90;;;;;;;16.83;100.00;100790.44;5002247;28;20202;-79
2022/09/13 06:49:30;;;;;;;29.10;22.47;;;;;;;16.96;100.00;100793.81;5004538;28;20276;-80
2022/09/13 06:51:56;;;;;;;30.63;22.30;;;;;;;17.03;100.00;100792.88;5001735;28;20747;-79
2022/09/13 06:54:21;;;;;;;30.90;22.57;;;;;;;17.03;99.63;100798.03;5005553;28;20329;-80
2022/09/13 06:56:47;;;;;;;28.07;22.73;;;;;;;17.10;99.75;100805.78;5000165;28;20602;-81
2022/09/13 06:59:12;;;;;;;28.03;21.97;;;;;;;17.14;99.15;100810.03;5004303;28;20207;-81
2022/09/13 07:01:41;;;;;;;27.07;21.60;;;;;;;17.17;99.32;100807.44;4985445;28;20682;-81
2022/09/13 07:04:12;;;;;;;30.90;23.20;;;;;;;17.08;99.70;100798.91;4996236;28;20192;-79
2022/09/13 07:06:40;;;;;;;30.33;23.47;;;;;;;17.10;99.65;100799.72;4999544;28;20602;-80
2022/09/13 07:09:09;;;;;;;29.87;23.00;;;;;;;17.08;100.00;100802.31;4997248;28;20214;-79
2022/09/13 07:11:37;;;;;;;33.27;24.60;;;;;;;17.20;99.83;100802.25;4999509;28;20238;-80
2022/09/13 07:14:05;;;;;;;30.00;23.37;;;;;;;17.28;99.06;100795.28;5001785;28;20234;-78
2022/09/13 07:16:34;;;;;;;30.40;22.43;;;;;;;17.43;98.56;100804.66;5005562;28;20251;-79
2022/09/13 07:19:04;;;;;;;28.33;22.97;;;;;;;17.48;98.58;100803.75;4986037;28;20266;-78
2022/09/13 07:21:30;;;;;;;29.30;21.33;;;;;;;17.42;99.44;100803.81;5002364;28;20350;-80
2022/09/13 07:23:56;;;;;;;28.00;22.20;;;;;;;17.47;98.77;100802.03;5006215;28;20207;-78
2022/09/13 07:26:22;;;;;;;26.70;21.80;;;;;;;17.57;99.01;100808.84;5001400;28;20184;-79
2022/09/13 07:28:51;;;;;;;26.73;21.97;;;;;;;17.66;98.62;100802.69;5007129;28;20210;-79
2022/09/13 07:31:22;;;;;;;23.40;19.83;;;;;;;17.85;97.40;100809.41;5000212;28;20262;-79
2022/09/13 07:33:54;;;;;;;27.53;21.00;;;;;;;17.80;97.02;100814.66;5007819;28;20278;-79
2022/09/13 07:36:19;;;;;;;25.37;20.97;;;;;;;17.89;96.42;100811.97;4996528;28;20278;-79
2022/09/13 07:38:45;;;;;;;20.97;18.20;;;;;;;18.27;94.96;100814.09;5006251;28;20222;-79
2022/09/13 07:41:14;;;;;;;21.73;17.93;;;;;;;18.29;94.80;100818.38;4997797;28;20208;-78
2022/09/13 07:43:39;;;;;;;23.90;19.47;;;;;;;18.07;95.62;100808.31;4982297;28;20704;-78
2022/09/13 07:46:10;;;;;;;24.50;20.77;;;;;;;17.92;96.23;100808.47;5000816;28;20198;-79
2022/09/13 07:48:38;;;;;;;23.20;19.53;;;;;;;18.21;95.97;100804.69;5003983;28;20195;-78
2022/09/13 07:51:12;;;;;;;23.23;18.87;;;;;;;18.35;95.38;100813.19;5001290;28;20326;-79
2022/09/13 07:53:39;;;;;;;23.67;19.43;;;;;;;18.22;94.45;100814.16;4988422;28;20198;-78
2022/09/13 07:56:07;;;;;;;22.43;18.27;;;;;;;18.53;93.63;100814.66;5004682;28;20688;-79
2022/09/13 07:58:34;;;;;;;22.67;18.53;;;;;;;18.58;93.44;100813.75;4982870;28;20239;-79
2022/09/13 08:01:05;;;;;;;22.07;17.93;;;;;;;18.45;93.76;100825.16;4998212;28;20226;-81
2022/09/13 08:03:34;;;;;;;21.63;17.40;;;;;;;18.43;94.02;100820.84;4998565;28;20279;-81
2022/09/13 08:06:00;;;;;;;22.70;17.27;;;;;;;18.57;93.75;100824.97;4984945;28;20195;-79
2022/09/13 08:08:27;;;;;;;21.90;16.40;;;;;;;18.95;92.42;100820.13;4980909;28;20279;-80
2022/09/13 08:10:52;;;;;;;16.30;14.07;;;;;;;19.50;89.50;100818.38;5008778;28;20695;-81
2022/09/13 08:13:18;;;;;;;18.93;13.10;;;;;;;19.49;88.93;100834.81;4995442;28;20282;-80
2022/09/13 08:15:43;;;;;;;18.00;14.30;;;;;;;19.29;89.83;100834.31;4998655;28;20642;-80
2022/09/13 08:18:09;;;;;;;18.33;13.47;;;;;;;19.26;89.14;100823.97;4996381;28;20199;-80
2022/09/13 08:20:37;;;;;;;20.57;14.37;;;;;;;19.14;89.25;100824.16;4982169;28;20191;-79
2022/09/13 08:23:03;;;;;;;16.23;13.17;;;;;;;19.03;90.16;100825.19;4998707;28;20187;-82
2022/09/13 08:25:33;;;;;;;16.67;14.23;;;;;;;18.97;90.30;100831.31;4997546;28;20536;-80
2022/09/13 08:27:58;;;;;;;17.23;13.60;;;;;;;19.01;90.45;100832.13;4997238;28;20199;-81
2022/09/13 08:30:23;;;;;;;16.83;13.13;;;;;;;19.10;90.64;100832.84;4993984;28;20214;-80
2022/09/13 08:32:50;;;;;;;20.13;12.70;;;;;;;18.93;90.83;100827.06;4996762;28;20227;-80
2022/09/13 08:35:15;;;;;;;19.80;13.60;;;;;;;18.79;91.78;100826.41;4996033;28;20184;-79
2022/09/13 08:37:41;;;;;;;16.57;13.53;;;;;;;18.78;92.07;100826.41;4991103;28;20551;-80
2022/09/13 08:40:07;;;;;;;14.77;9.47;;;;;;;18.93;91.37;100834.84;4993817;28;20550;-80
2022/09/13 08:42:59;;;;;;;16.17;8.20;;;;;;;19.14;91.43;100826.75;4995838;28;20211;-81
2022/09/13 08:45:24;;;;;;;10.77;7.23;;;;;;;19.24;90.65;100832.66;4980260;28;20679;-81
2022/09/13 08:48:00;;;;;;;10.60;6.53;;;;;;;19.11;90.19;100836.31;4993850;28;20287;-79
2022/09/13 08:50:37;;;;;;;9.63;5.83;;;;;;;19.09;89.54;100851.03;4988815;28;20703;-80
2022/09/13 08:53:28;;;;;;;8.00;5.40;;;;;;;19.21;89.62;100843.91;4988013;28;20237;-80
2022/09/13 08:55:56;;;;;;;9.47;6.00;;;;;;;19.43;87.99;100837.53;4997664;28;20585;-79
2022/09/13 08:58:49;;;;;;;9.77;5.30;;;;;;;19.73;86.96;100838.75;4992347;28;20191;-79
2022/09/13 09:01:35;;;;;;;9.50;5.27;;;;;;;20.10;84.79;100819.00;4987434;28;20215;-79
2022/09/13 09:04:22;;;;;;;8.03;5.20;;;;;;;20.67;81.98;100826.47;4988199;28;20203;-81
2022/09/13 09:06:48;;;;;;;9.67;4.70;;;;;;;20.92;80.62;100819.84;4989706;28;20716;-80
2022/09/13 09:09:17;;;;;;;11.10;4.63;;;;;;;20.67;80.71;100829.06;4996632;28;20218;-81
2022/09/13 09:12:09;;;;;;;7.30;3.97;;;;;;;20.33;81.79;100828.09;4998255;28;20239;-80
2022/09/13 09:14:43;;;;;;;8.30;3.33;;;;;;;20.05;81.08;100828.63;4993470;28;20246;-82
2022/09/13 09:17:24;;;;;;;6.93;3.80;;;;;;;19.99;82.77;100823.53;4995081;28;20199;-80
2022/09/13 09:20:07;;;;;;;11.43;4.10;;;;;;;20.08;80.66;100826.00;4992608;28;20199;-79
2022/09/13 09:22:35;;;;;;;9.53;3.73;;;;;;;20.00;81.84;100826.09;4997146;28;20214;-79
2022/09/13 09:25:01;;;;;;;7.97;4.40;;;;;;;20.13;82.53;100825.00;4997020;28;20203;-79
2022/09/13 09:27:29;;;;;;;11.70;4.50;;;;;;;21.18;79.81;100819.22;4999481;28;20691;-81
2022/09/13 09:29:57;;;;;;;6.73;3.40;;;;;;;22.85;71.10;100815.47;4993491;28;20215;-80
2022/09/13 09:33:02;;;;;;;6.57;3.00;;;;;;;22.49;71.83;100811.38;4996643;28;20647;-80
2022/09/13 09:35:52;;;;;;;11.23;3.13;;;;;;;21.45;73.90;100815.94;4991245;28;20604;-80
2022/09/13 09:38:24;;;;;;;8.83;2.33;;;;;;;21.20;74.26;100817.44;4983091;28;20195;-80
2022/09/13 09:40:50;;;;;;;8.37;2.33;;;;;;;21.58;71.82;100814.72;4995156;28;20266;-80
2022/09/13 09:43:26;;;;;;;5.83;2.03;;;;;;;21.83;71.33;100819.28;4994853;28;20206;-78
2022/09/13 09:45:55;;;;;;;9.33;2.13;;;;;;;22.02;71.28;100819.66;4996648;28;20191;-79
2022/09/13 09:48:27;;;;;;;5.20;1.50;;;;;;;24.09;62.06;100804.31;4996987;28;20202;-80
2022/09/13 09:50:59;;;;;;;10.37;1.90;;;;;;;22.42;68.41;100827.22;4996049;28;20218;-79
2022/09/13 09:53:30;;;;;;;7.13;2.10;;;;;;;21.53;70.69;100829.63;4999632;28;20191;-78
2022/09/13 09:56:13;;;;;;;7.80;2.20;;;;;;;21.12;74.30;100830.66;5012136;28;20204;-79
2022/09/13 09:58:41;;;;;;;5.67;2.07;;;;;;;20.99;73.25;100836.19;4998953;28;20246;-80
2022/09/13 10:01:33;;;;;;;3.23;1.77;;;;;;;21.49;71.98;100831.47;4994544;28;20207;-79
2022/09/13 10:04:04;;;;;;;4.72;1.90;;;;;;;27.02;54.38;100805.72;4998130;28;20191;-80
2022/09/13 10:06:31;;;;;;;5.75;2.13;;;;;;;25.87;56.14;100806.72;5000163;28;20218;-80
2022/09/13 10:09:01;;;;;;;5.47;1.75;;;;;;;28.42;50.52;100794.06;5010980;28;20199;-81
2022/09/13 10:11:41;;;;;;;5.05;1.60;;;;;;;31.78;39.76;100782.75;4996158;28;20204;-80
2022/09/13 10:14:33;;;;;;;5.25;1.50;;;;;;;31.71;36.64;100777.00;4986473;28;20618;-79
2022/09/13 10:17:23;;;;;;;6.28;1.48;;;;;;;32.35;36.33;100778.69;5002451;28;20215;-81
2022/09/13 10:20:20;;;;;;;3.53;1.52;;;;;;;33.22;35.05;100782.84;5004071;28;20187;-79
2022/09/13 10:23:16;;;;;;;5.55;1.42;;;;;;;28.74;42.99;100791.34;4996335;28;20199;-77
2022/09/13 10:25:54;;;;;;;7.05;1.60;;;;;;;30.90;37.79;100776.38;5002894;28;20198;-81
2022/09/13 10:28:20;;;;;;;3.63;1.40;;;;;;;34.96;32.96;100768.94;5017214;28;20199;-80
2022/09/13 10:30:48;;;;;;;6.38;1.60;;;;;;;34.84;32.29;100768.13;4999486;28;20614;-78
2022/09/13 10:33:38;;;;;;;3.90;1.33;;;;;;;32.65;34.20;100774.72;5000765;28;20341;-81
2022/09/13 10:36:12;;;;;;;5.53;1.33;;;;;;;28.45;39.83;100793.88;4996807;28;20188;-79
2022/09/13 10:38:39;;;;;;;7.78;1.85;;;;;;;32.23;34.07;100785.69;4999048;28;20263;-79
2022/09/13 10:41:10;;;;;;;3.13;1.05;;;;;;;29.75;36.52;100783.63;4997396;28;20207;-80
2022/09/13 10:43:36;;;;;;;6.53;1.20;;;;;;;30.92;34.50;100788.56;4998918;28;20187;-80
2022/09/13 10:46:05;;;;;;;4.15;1.25;;;;;;;29.14;37.33;100782.91;4985883;28;20183;-80
2022/09/13 10:48:45;;;;;;;6.00;1.48;;;;;;;32.59;32.81;100769.81;5001549;28;20191;-80
2022/09/13 10:51:16;;;;;;;5.75;1.70;;;;;;;31.69;32.99;100767.47;5003855;28;20207;-80
2022/09/13 10:53:42;;;;;;;5.65;1.63;;;;;;;29.04;37.40;100787.00;5001367;28;20184;-79
2022/09/13 10:56:27;;;;;;;6.03;1.50;;;;;;;29.05;39.18;100786.06;5006346;28;20198;-80
2022/09/13 10:59:23;;;;;;;3.25;1.17;;;;;;;28.87;38.71;100784.44;4998153;28;20200;-80
2022/09/13 11:02:10;;;;;;;2.85;1.20;;;;;;;28.61;39.20;100784.22;5017223;28;20212;-79
2022/09/13 11:05:17;;;;;;;5.38;1.55;;;;;;;28.84;39.82;100791.69;5020238;28;20190;-80
2022/09/13 11:08:04;;;;;;;4.88;1.40;;;;;;;28.24;41.02;100789.75;4993317;28;20188;-80
2022/09/13 11:10:44;;;;;;;6.68;1.40;;;;;;;27.76;41.67;100785.25;5007899;28;20277;-80
2022/09/13 11:13:33;;;;;;;4.18;1.38;;;;;;;28.34;41.67;100776.00;4998247;28;20198;-80
2022/09/13 11:16:08;;;;;;;7.47;1.60;;;;;;;28.01;40.42;100767.28;4985287;28;20203;-80
2022/09/13 11:18:52;;;;;;;5.22;1.23;;;;;;;28.14;41.39;100772.75;4996907;28;20192;-80
2022/09/13 11:21:32;;;;;;;3.70;1.20;;;;;;;28.19;40.10;100768.91;5010170;28;20212;-80
2022/09/13 11:24:00;;;;;;;5.30;1.40;;;;;;;28.29;38.49;100770.13;4999760;28;20196;-79
2022/09/13 11:26:34;;;;;;;4.57;1.17;;;;;;;28.21;36.70;100782.00;5000538;28;20238;-80
2022/09/13 11:29:09;;;;;;;2.50;0.93;;;;;;;27.87;39.05;100774.22;5004512;28;20214;-80
2022/09/13 11:31:54;;;;;;;3.22;1.10;;;;;;;28.17;36.48;100778.69;4983207;28;20298;-80
2022/09/13 11:34:40;;;;;;;5.00;1.10;;;;;;;28.48;37.30;100767.38;4997244;28;20180;-80
2022/09/13 11:37:30;;;;;;;5.70;1.15;;;;;;;28.62;37.87;100764.81;4975928;28;20278;-78
2022/09/13 11:39:55;;;;;;;3.28;0.88;;;;;;;28.32;37.68;100759.41;4998980;28;20714;-80